Historyczne dane pomiarowe

Dodano dane terminowe – wersja testowa.

Dane z okresu 1951-2019

Wersja bazy: 1.34 [2019-03-16, lista zmian], aktualizacja planowana na 2019-04-15

Dane meteo z obszaru Polski uzyskane na podstawie danych udostępnionych przez Instytut Meteorologii i Gospodarki Wodnej – Państwowy Instytut Badawczy.

 

Wybierz Datę:    

       

TemperaturaWilgotnośćWiatrCiśnienieOpadyŚniegCzas trwania zjawisk
 Stacja t tx tn tng RH VA  wxwx mslp ppp RRR   cm mm wxwxwxwxwxwxwx
1994-08-14 15.8 20.2 11.0 9.5 56.5- 3.3 5.0---- 0.0------------
1994-08-13 17.5 23.1 14.9 13.3 79.5- 4.7 6.0---- 0.0------------
1994-08-12 16.9 21.2 13.5 11.9 88.8- 7.0 1.0---- 2.8------------
1994-08-11 19.5 24.7 16.9 15.6 84.5- 6.7 3.3---- 1.5------------
1994-08-10 21.9 29.2 14.1 12.3 72.0- 3.0 0.0---- 9.3------------
1994-08-09 20.3 24.9 17.2 16.1 85.8- 6.0 1.7---- 2.4------------
1994-08-08 21.0 26.0 17.2 16.4 87.0- 7.0 0.0---- 17.4------------
1994-08-07 23.3 29.1 17.8 16.6 75.0- 4.0 2.3---- 14.4------------
1994-08-06 25.3 31.4 18.0 13.9 57.5- 2.7 3.0---- 0.0------------
1994-08-05 24.3 33.8 12.0 10.5 53.0- 1.3 0.7---- 0.0------------
1994-08-04 24.6 31.4 12.8 10.7 56.8- 1.0 0.7---- 0.0------------
1994-08-03 24.6 30.0 17.4 18.2 68.8- 4.7 1.3---- 0.0------------
1994-08-02 27.6 33.9 18.4 15.1 60.0- 1.0 2.3---- 0.0------------
1994-08-01 28.4 37.7 17.6 14.6 54.3- 2.7 1.0---- 0.0------------
1994-07-31 27.7 37.6 17.9 16.7 46.5- 3.7 0.3---- 0.0------------
1994-07-30 26.6 36.5 16.0 13.1 47.3- 0.7 0.3---- 0.0------------
1994-07-29 26.6 36.2 15.3 12.9 50.3- 1.0 0.3---- 0.0------------
1994-07-28 25.5 34.9 13.1 10.9 52.3- 1.7 1.3---- 0.0------------
1994-07-27 26.1 34.5 16.7 15.3 53.3- 3.7 1.0---- 0.0------------
1994-07-26 25.1 34.4 14.0 11.8 63.3- 4.0 0.0---- 0.0------------
1994-07-25 24.5 33.8 12.5 8.9 53.8- 3.0 0.3---- 0.0------------
1994-07-24 22.7 31.4 13.6 12.5 57.5- 2.0 1.0---- 0.0------------
1994-07-23 21.8 29.5 9.8 7.5 58.0- 1.0 1.7---- 0.0------------
1994-07-22 21.2 30.1 9.7 7.8 59.5- 0.3 0.7---- 0.0------------
1994-07-21 19.9 27.9 8.5 7.9 61.8- 0.7 1.7---- 0.0------------
1994-07-20 18.8 25.1 10.0 7.9 65.5- 1.3 0.0---- 0.0------------
1994-07-19 18.4 23.5 15.8 14.9 77.5- 6.7 1.0---- 0.0------------
1994-07-18 19.6 25.0 15.1 15.3 83.3- 7.0 1.3---- 0.0------------
1994-07-17 20.8 28.9 15.0 13.7 84.3- 4.0 0.0---- 1.3------------
1994-07-16 21.8 30.1 16.0 14.8 80.8- 5.7 1.7---- 56.8------------
1994-07-15 23.9 31.1 16.5 14.1 62.5- 3.7 0.7---- 0.1------------
1994-07-14 23.9 32.4 12.5 9.6 59.3- 2.7 1.0---- 0.0------------
1994-07-13 22.2 30.1 12.1 9.1 64.3- 3.3 2.7---- 0.0------------
1994-07-12 20.8 28.1 13.9 9.2 71.5- 4.3 5.3---- 0.0------------
1994-07-11 21.1 28.7 12.3 8.6 75.8- 4.7 5.0---- 0.0------------
1994-07-10 18.1 24.1 13.6 11.3 81.5- 4.3 0.3---- 0.0------------
1994-07-09 15.8 20.9 12.3 9.7 87.5- 6.7 5.7---- 1.7------------
1994-07-08 16.0 19.6 10.5 8.7 87.5- 5.0 4.3---- 3.8------------
1994-07-07 18.2 27.4 13.1 12.9 85.8- 5.7 0.7---- 4.1------------
1994-07-06 20.3 26.5 10.9 8.9 73.3- 4.3 0.0---- 0.0------------
1994-07-05 20.3 27.6 13.6 11.5 72.8- 5.7 0.3---- 0.0------------
1994-07-04 22.0 30.4 10.9 8.9 64.5- 1.7 0.7---- 0.0------------
1994-07-03 21.3 29.1 9.2 11.9 63.3- 0.0 0.0---- 0.0------------
1994-07-02 19.4 25.7 9.0 9.4 70.0- 0.3 1.3---- 0.0------------
1994-07-01 17.9 23.3 10.4 8.9 70.3- 3.0 1.3---- 0.0------------
1994-06-30 20.2 28.2 17.1 16.5 90.8- 6.3 3.3---- 16.6------------
1994-06-29 26.1 34.6 17.5 14.7 67.0- 2.7 1.0---- 0.0------------
1994-06-28 25.2 32.3 17.2 14.7 71.8- 3.0 0.0---- 0.0------------
1994-06-27 25.4 32.2 17.6 9.5 69.0- 1.7 0.3---- 0.0------------
1994-06-26 21.9 30.6 9.0 6.4 62.5- 2.0 1.0---- 0.0------------
1994-06-25 17.3 26.7 4.0 1.8 57.8- 0.0 0.3---- 0.0------------
1994-06-24 14.9 21.2 6.4 3.2 57.8- 0.3 3.3---- 0.0------------
1994-06-23 17.2 20.9 13.4 11.0 62.5- 1.0 4.3---- 0.0------------
1994-06-22 19.4 26.5 12.7 10.0 76.3- 6.7 3.7---- 0.3------------
1994-06-21 16.1 23.1 6.4 4.1 72.8- 2.0 0.7---- 0.0------------
1994-06-20 16.1 21.9 11.7 8.7 79.8- 5.7 2.3---- 0.0------------
1994-06-19 18.6 25.7 12.8 11.9 71.8- 5.7 3.0---- 0.0------------
1994-06-18 12.0 20.2 3.7 1.5 82.8- 5.3 2.0---- 4.3------------
1994-06-17 11.5 15.2 8.4 7.5 69.5- 4.7 4.7---- 0.0------------
1994-06-16 11.1 15.7 6.1 3.3 80.3- 7.7 4.0---- 4.4------------
1297.1 ms

 

Źródłem pochodzenia danych jest Instytut Meteorologii i Gospodarki Wodnej – Państwowy Instytut Badawczy. Dane Instytutu Meteorologii i Gospodarki Wodnej – Państwowego Instytutu Badawczego zostały przetworzone.

Dane źródłowe można odnaleźć na stronie https://dane.imgw.pl